createdAt,value
2018-09-18T00:00:50.569Z,99.90
2018-09-18T00:03:18.955Z,99.90
2018-09-18T00:05:47.303Z,99.90
2018-09-18T00:08:15.680Z,99.90
2018-09-18T00:10:44.076Z,99.90
2018-09-18T00:13:12.421Z,99.90
2018-09-18T00:15:40.803Z,99.90
2018-09-18T00:18:09.145Z,99.90
2018-09-18T00:20:37.528Z,99.90
2018-09-18T00:23:06.251Z,99.90
2018-09-18T00:25:35.377Z,99.90
2018-09-18T00:28:03.744Z,99.90
2018-09-18T00:30:32.132Z,99.90
2018-09-18T00:33:00.468Z,99.90
2018-09-18T00:35:28.858Z,99.90
2018-09-18T00:37:57.216Z,99.90
2018-09-18T00:40:25.593Z,99.90
2018-09-18T00:42:53.939Z,99.90
2018-09-18T00:45:22.339Z,99.90
2018-09-18T00:47:50.698Z,99.90
2018-09-18T00:50:19.096Z,99.90
2018-09-18T00:52:47.453Z,99.90
2018-09-18T00:55:15.867Z,99.90
2018-09-18T00:57:44.229Z,99.90
2018-09-18T01:00:12.625Z,99.90
2018-09-18T01:02:41.000Z,99.90
2018-09-18T01:05:09.389Z,99.90
2018-09-18T01:07:37.768Z,99.90
2018-09-18T01:10:06.232Z,99.90
2018-09-18T01:12:34.568Z,99.90
2018-09-18T01:15:02.957Z,99.90
2018-09-18T01:17:31.393Z,99.90
2018-09-18T01:19:59.767Z,99.90
2018-09-18T01:22:28.136Z,99.90
2018-09-18T01:24:56.493Z,99.90
2018-09-18T01:27:24.878Z,99.90
2018-09-18T01:29:53.229Z,99.90
2018-09-18T01:32:21.596Z,99.90
2018-09-18T01:34:49.937Z,99.90
2018-09-18T01:37:18.315Z,99.90
2018-09-18T01:39:46.664Z,99.90
2018-09-18T01:42:15.034Z,99.90
2018-09-18T01:44:43.368Z,99.90
2018-09-18T01:47:11.736Z,99.90
2018-09-18T01:49:40.069Z,99.90
2018-09-18T01:52:08.431Z,99.90
2018-09-18T01:54:36.785Z,99.90
2018-09-18T01:57:05.435Z,99.90
2018-09-18T01:59:33.763Z,99.90
2018-09-18T02:02:02.136Z,99.90
2018-09-18T02:04:30.471Z,99.90
2018-09-18T02:06:58.828Z,99.90
2018-09-18T02:09:27.168Z,99.90
2018-09-18T02:11:55.536Z,99.90
2018-09-18T02:14:23.879Z,99.90
2018-09-18T02:16:52.240Z,99.90
2018-09-18T02:19:20.608Z,99.90
2018-09-18T02:21:48.956Z,99.90
2018-09-18T02:24:17.316Z,99.90
2018-09-18T02:26:45.684Z,99.90
2018-09-18T02:29:14.040Z,99.90
2018-09-18T02:31:42.369Z,99.90
2018-09-18T02:34:10.744Z,99.90
2018-09-18T02:36:39.080Z,99.90
2018-09-18T02:39:09.793Z,99.90
2018-09-18T02:41:38.177Z,99.90
2018-09-18T02:44:06.526Z,99.90
2018-09-18T02:46:34.872Z,99.90
2018-09-18T02:49:03.232Z,99.90
2018-09-18T02:51:31.572Z,99.90
2018-09-18T02:53:59.940Z,99.90
2018-09-18T02:56:28.281Z,99.90
2018-09-18T02:58:56.644Z,99.90
2018-09-18T03:01:24.979Z,99.90
2018-09-18T03:03:53.348Z,99.90
2018-09-18T03:06:21.736Z,99.90
2018-09-18T03:08:50.088Z,99.90
2018-09-18T03:11:18.528Z,99.90
2018-09-18T03:13:46.820Z,99.90
2018-09-18T03:16:15.153Z,99.90
2018-09-18T03:18:43.504Z,99.90
2018-09-18T03:21:11.837Z,99.90
2018-09-18T03:23:40.236Z,99.90
2018-09-18T03:26:08.976Z,99.90
2018-09-18T03:28:37.385Z,99.90
2018-09-18T03:31:05.720Z,99.90
2018-09-18T03:33:34.074Z,99.90
2018-09-18T03:36:02.409Z,99.90
2018-09-18T03:38:30.773Z,99.90
2018-09-18T03:40:59.120Z,99.90
2018-09-18T03:43:27.511Z,99.90
2018-09-18T03:45:55.847Z,99.90
2018-09-18T03:48:24.205Z,99.90
2018-09-18T03:50:52.573Z,99.90
2018-09-18T03:53:20.960Z,99.90
2018-09-18T03:55:49.289Z,99.90
2018-09-18T03:58:17.648Z,99.90
2018-09-18T04:00:45.973Z,99.90
2018-09-18T04:03:14.365Z,99.90
2018-09-18T04:05:42.704Z,99.90
2018-09-18T04:08:11.027Z,99.90
2018-09-18T04:10:39.388Z,99.90
2018-09-18T04:13:07.963Z,99.90
2018-09-18T04:15:36.501Z,99.90
2018-09-18T04:18:04.893Z,99.90
2018-09-18T04:20:33.276Z,99.90
2018-09-18T04:23:01.637Z,99.90
2018-09-18T04:25:30.035Z,99.90
2018-09-18T04:27:58.403Z,99.90
2018-09-18T04:30:26.781Z,99.90
2018-09-18T04:32:55.187Z,99.90
2018-09-18T04:35:23.554Z,99.90
2018-09-18T04:37:51.948Z,99.90
2018-09-18T04:40:20.344Z,99.90
2018-09-18T04:42:48.693Z,99.90
2018-09-18T04:45:17.124Z,99.90
2018-09-18T04:47:45.485Z,99.90
2018-09-18T04:50:13.969Z,99.90
2018-09-18T04:52:42.324Z,99.90
2018-09-18T04:55:10.728Z,99.90
2018-09-18T04:57:39.084Z,99.90
2018-09-18T05:00:08.133Z,99.90
2018-09-18T05:02:36.484Z,99.90
2018-09-18T05:05:05.617Z,99.90
2018-09-18T05:07:34.004Z,99.90
2018-09-18T05:10:02.399Z,99.90
2018-09-18T05:12:30.752Z,99.90
2018-09-18T05:14:59.139Z,99.90
2018-09-18T05:17:27.477Z,99.90
2018-09-18T05:19:55.852Z,99.90
2018-09-18T05:22:24.238Z,99.90
2018-09-18T05:24:52.632Z,99.90
2018-09-18T05:27:20.975Z,99.90
2018-09-18T05:29:49.336Z,99.90
2018-09-18T05:32:17.677Z,99.90
2018-09-18T05:34:46.436Z,99.90
2018-09-18T05:37:14.787Z,99.90
2018-09-18T05:39:43.284Z,99.90
2018-09-18T05:42:11.637Z,99.90
2018-09-18T05:44:40.066Z,99.90
2018-09-18T05:47:09.023Z,99.90
2018-09-18T05:49:37.425Z,99.90
2018-09-18T05:52:06.004Z,99.90
2018-09-18T05:54:34.418Z,99.90
2018-09-18T05:57:02.882Z,99.90
2018-09-18T05:59:31.308Z,99.90
2018-09-18T06:01:59.720Z,99.90
2018-09-18T06:04:28.132Z,99.90
2018-09-18T06:06:56.549Z,99.90
2018-09-18T06:09:24.953Z,99.90
2018-09-18T06:11:53.412Z,99.90
2018-09-18T06:14:21.780Z,99.90
2018-09-18T06:16:50.216Z,99.90
2018-09-18T06:19:18.650Z,99.90
2018-09-18T06:21:47.236Z,99.90
2018-09-18T06:24:16.028Z,99.90
2018-09-18T06:26:44.432Z,99.90
2018-09-18T06:29:12.788Z,99.90
2018-09-18T06:31:41.304Z,99.90
2018-09-18T06:34:09.681Z,99.90
2018-09-18T06:36:38.062Z,99.90
2018-09-18T06:39:08.764Z,99.90
2018-09-18T06:41:37.140Z,99.90
2018-09-18T06:44:05.497Z,99.90
2018-09-18T06:46:33.904Z,99.90
2018-09-18T06:49:02.285Z,99.90
2018-09-18T06:51:30.734Z,99.90
2018-09-18T06:53:59.098Z,99.90
2018-09-18T06:56:27.616Z,99.90
2018-09-18T06:58:56.033Z,99.90
2018-09-18T07:01:24.460Z,99.90
2018-09-18T07:03:52.863Z,99.90
2018-09-18T07:06:21.256Z,99.90
2018-09-18T07:08:49.639Z,99.90
2018-09-18T07:11:18.048Z,99.90
2018-09-18T07:13:46.411Z,99.90
2018-09-18T07:16:14.804Z,99.90
2018-09-18T07:18:43.156Z,99.90
2018-09-18T07:21:11.865Z,99.90
2018-09-18T07:23:40.528Z,99.90
2018-09-18T07:26:09.250Z,99.90
2018-09-18T07:28:37.604Z,99.90
2018-09-18T07:31:06.011Z,99.90
2018-09-18T07:33:34.419Z,99.90
2018-09-18T07:36:02.855Z,99.90
2018-09-18T07:38:31.215Z,99.90
2018-09-18T07:40:59.699Z,99.90
2018-09-18T07:43:27.968Z,99.90
2018-09-18T07:45:56.353Z,99.90
2018-09-18T07:48:26.404Z,99.90
2018-09-18T07:50:54.788Z,99.90
2018-09-18T07:53:23.141Z,99.90
2018-09-18T07:55:51.532Z,99.90
2018-09-18T07:58:19.876Z,99.90
2018-09-18T08:00:48.248Z,99.90
2018-09-18T08:03:16.724Z,99.90
2018-09-18T08:05:45.013Z,99.90
2018-09-18T08:08:13.396Z,99.90
2018-09-18T08:10:41.799Z,99.90
2018-09-18T08:13:10.157Z,99.80
2018-09-18T08:15:38.492Z,99.90
2018-09-18T08:18:06.857Z,99.60
2018-09-18T08:20:35.188Z,98.70
2018-09-18T08:23:03.613Z,98.90
2018-09-18T08:25:31.952Z,98.20
2018-09-18T08:28:00.332Z,97.10
2018-09-18T08:30:28.676Z,97.20
2018-09-18T08:32:57.137Z,96.70
2018-09-18T08:35:25.412Z,96.00
2018-09-18T08:37:53.833Z,96.00
2018-09-18T08:40:22.189Z,94.80
2018-09-18T08:42:50.601Z,95.30
2018-09-18T08:45:18.957Z,94.60
2018-09-18T08:47:47.381Z,93.30
2018-09-18T08:50:15.725Z,92.90
2018-09-18T08:52:44.149Z,92.60
2018-09-18T08:55:12.527Z,92.80
2018-09-18T08:57:40.912Z,92.20
2018-09-18T09:00:09.268Z,91.60
2018-09-18T09:02:37.660Z,91.10
2018-09-18T09:05:06.040Z,90.90
2018-09-18T09:07:34.472Z,91.10
2018-09-18T09:10:02.819Z,90.20
2018-09-18T09:12:31.249Z,89.50
2018-09-18T09:14:59.635Z,86.40
2018-09-18T09:17:28.002Z,86.70
2018-09-18T09:19:56.399Z,83.40
2018-09-18T09:22:24.893Z,82.10
2018-09-18T09:24:53.205Z,84.60
2018-09-18T09:27:21.619Z,83.20
2018-09-18T09:29:49.990Z,83.90
2018-09-18T09:32:18.511Z,83.40
2018-09-18T09:34:46.730Z,81.20
2018-09-18T09:37:15.253Z,79.60
2018-09-18T09:39:43.523Z,79.90
2018-09-18T09:42:11.903Z,77.70
2018-09-18T09:44:40.251Z,79.00
2018-09-18T09:47:08.657Z,77.60
2018-09-18T09:49:37.010Z,76.60
2018-09-18T09:52:05.496Z,76.40
2018-09-18T09:54:33.880Z,74.50
2018-09-18T09:57:02.292Z,73.50
2018-09-18T09:59:30.644Z,74.60
2018-09-18T10:02:04.211Z,73.30
2018-09-18T10:04:32.601Z,73.80
2018-09-18T10:07:00.952Z,73.80
2018-09-18T10:09:29.323Z,72.00
2018-09-18T10:11:57.679Z,70.50
2018-09-18T10:14:26.165Z,68.80
2018-09-18T10:16:54.496Z,69.00
2018-09-18T10:19:22.881Z,66.40
2018-09-18T10:21:51.437Z,68.40
2018-09-18T10:24:19.838Z,67.90
2018-09-18T10:26:48.204Z,67.50
2018-09-18T10:29:16.594Z,68.10
2018-09-18T10:31:44.954Z,67.40
2018-09-18T10:34:13.388Z,66.50
2018-09-18T10:36:41.732Z,67.60
2018-09-18T10:39:11.171Z,68.00
2018-09-18T10:41:39.538Z,67.90
2018-09-18T10:44:08.177Z,66.30
2018-09-18T10:46:36.997Z,62.10
2018-09-18T10:49:05.425Z,61.00
2018-09-18T10:51:33.780Z,63.70
2018-09-18T10:54:02.174Z,63.70
2018-09-18T10:56:30.544Z,64.40
2018-09-18T10:58:58.942Z,62.60
2018-09-18T11:01:27.418Z,62.30
2018-09-18T11:03:55.796Z,62.20
2018-09-18T11:06:24.223Z,62.40
2018-09-18T11:08:52.625Z,62.10
2018-09-18T11:11:21.060Z,63.40
2018-09-18T11:13:49.455Z,60.40
2018-09-18T11:16:17.758Z,63.80
2018-09-18T11:18:46.163Z,63.50
2018-09-18T11:21:14.563Z,62.30
2018-09-18T11:23:42.991Z,61.70
2018-09-18T11:26:11.314Z,59.50
2018-09-18T11:28:39.718Z,58.80
2018-09-18T11:31:08.088Z,59.80
2018-09-18T11:33:36.489Z,57.40
2018-09-18T11:36:04.875Z,57.70
2018-09-18T11:38:33.266Z,57.40
2018-09-18T11:41:01.628Z,58.50
2018-09-18T11:43:30.016Z,58.10
2018-09-18T11:45:58.618Z,57.40
2018-09-18T11:48:26.727Z,56.40
2018-09-18T11:50:55.143Z,57.50
2018-09-18T11:53:23.473Z,58.10
2018-09-18T11:55:51.852Z,57.40
2018-09-18T11:58:20.293Z,58.60
2018-09-18T12:00:48.652Z,56.80
2018-09-18T12:03:17.034Z,55.90
2018-09-18T12:05:45.368Z,55.80
2018-09-18T12:08:14.769Z,55.40
2018-09-18T12:10:43.135Z,55.00
2018-09-18T12:13:11.467Z,55.20
2018-09-18T12:15:39.825Z,56.00
2018-09-18T12:18:08.180Z,53.10
2018-09-18T12:20:36.557Z,54.30
2018-09-18T12:23:04.884Z,53.50
2018-09-18T12:25:33.248Z,54.00
2018-09-18T12:28:01.640Z,54.70
2018-09-18T12:30:29.992Z,55.90
2018-09-18T12:32:58.308Z,55.50
2018-09-18T12:35:26.725Z,53.70
2018-09-18T12:37:55.015Z,54.30
2018-09-18T12:40:23.396Z,54.80
2018-09-18T12:42:51.753Z,54.10
2018-09-18T12:45:20.109Z,53.60
2018-09-18T12:47:48.450Z,53.30
2018-09-18T12:50:17.036Z,53.10
2018-09-18T12:52:45.266Z,52.90
2018-09-18T12:55:13.701Z,53.60
2018-09-18T12:57:42.093Z,53.00
2018-09-18T13:00:10.511Z,52.70
2018-09-18T13:02:38.821Z,52.70
2018-09-18T13:05:07.212Z,51.80
2018-09-18T13:07:35.599Z,50.70
2018-09-18T13:10:04.119Z,49.50
2018-09-18T13:12:32.398Z,50.20
2018-09-18T13:15:00.813Z,49.10
2018-09-18T13:17:29.296Z,50.30
2018-09-18T13:19:57.672Z,50.40
2018-09-18T13:22:26.008Z,49.80
2018-09-18T13:24:54.405Z,48.30
2018-09-18T13:27:23.611Z,49.10
2018-09-18T13:29:52.005Z,49.10
2018-09-18T13:32:20.364Z,49.50
2018-09-18T13:34:48.886Z,50.20
2018-09-18T13:37:17.232Z,48.70
2018-09-18T13:39:45.611Z,49.50
2018-09-18T13:42:13.991Z,49.40
2018-09-18T13:44:42.332Z,49.30
2018-09-18T13:47:10.733Z,47.20
2018-09-18T13:49:39.080Z,48.50
2018-09-18T13:52:07.855Z,48.60
2018-09-18T13:54:36.188Z,47.90
2018-09-18T13:57:04.580Z,46.70
2018-09-18T13:59:32.951Z,46.90
2018-09-18T14:02:01.348Z,48.30
2018-09-18T14:04:29.693Z,49.30
2018-09-18T14:06:58.077Z,48.30
2018-09-18T14:09:26.505Z,47.80
2018-09-18T14:11:54.792Z,47.80
2018-09-18T14:14:23.246Z,48.30
2018-09-18T14:16:51.578Z,48.20
2018-09-18T14:19:19.908Z,45.80
2018-09-18T14:21:48.288Z,44.10
2018-09-18T14:24:16.625Z,44.20
2018-09-18T14:26:45.006Z,44.00
2018-09-18T14:29:13.480Z,46.70
2018-09-18T14:31:41.853Z,47.10
2018-09-18T14:34:10.192Z,47.80
2018-09-18T14:36:38.574Z,46.40
2018-09-18T14:39:08.713Z,47.10
2018-09-18T14:41:37.533Z,47.60
2018-09-18T14:44:05.863Z,47.60
2018-09-18T14:46:34.328Z,46.50
2018-09-18T14:49:02.944Z,46.60
2018-09-18T14:51:31.340Z,47.00
2018-09-18T14:53:59.683Z,48.00
2018-09-18T14:56:28.098Z,48.40
2018-09-18T14:58:56.436Z,48.60
2018-09-18T15:01:24.817Z,47.60
2018-09-18T15:03:53.255Z,48.40
2018-09-18T15:06:21.635Z,49.40
2018-09-18T15:08:50.014Z,49.80
2018-09-18T15:11:18.468Z,50.20
2018-09-18T15:13:46.824Z,49.80
2018-09-18T15:16:15.201Z,49.90
2018-09-18T15:18:43.548Z,50.80
2018-09-18T15:21:11.932Z,51.30
2018-09-18T15:23:40.275Z,51.70
2018-09-18T15:26:08.888Z,52.00
2018-09-18T15:28:37.352Z,52.40
2018-09-18T15:31:05.832Z,52.80
2018-09-18T15:33:34.182Z,53.50
2018-09-18T15:36:02.544Z,53.40
2018-09-18T15:38:31.024Z,53.90
2018-09-18T15:40:59.499Z,53.90
2018-09-18T15:43:27.885Z,54.20
2018-09-18T15:45:56.260Z,54.10
2018-09-18T15:48:24.693Z,54.00
2018-09-18T15:50:53.091Z,54.40
2018-09-18T15:53:21.464Z,55.10
2018-09-18T15:55:49.810Z,56.60
2018-09-18T15:58:18.206Z,57.00
2018-09-18T16:00:46.559Z,57.60
2018-09-18T16:03:14.965Z,58.40
2018-09-18T16:05:43.313Z,59.60
2018-09-18T16:08:11.713Z,61.50
2018-09-18T16:10:40.061Z,64.20
2018-09-18T16:13:08.580Z,65.50
2018-09-18T16:15:36.924Z,67.60
2018-09-18T16:18:05.551Z,72.50
2018-09-18T16:20:33.913Z,76.90
2018-09-18T16:23:02.335Z,79.80
2018-09-18T16:25:30.667Z,83.30
2018-09-18T16:27:59.091Z,84.40
2018-09-18T16:30:27.443Z,86.00
2018-09-18T16:32:55.832Z,84.50
2018-09-18T16:35:24.183Z,77.30
2018-09-18T16:37:52.598Z,79.30
2018-09-18T16:40:21.126Z,76.60
2018-09-18T16:42:49.364Z,73.50
2018-09-18T16:45:17.722Z,70.00
2018-09-18T16:47:46.115Z,65.90
2018-09-18T16:50:14.468Z,64.60
2018-09-18T16:52:42.941Z,61.10
2018-09-18T16:55:11.331Z,59.70
2018-09-18T16:57:39.667Z,60.00
2018-09-18T17:00:08.031Z,61.60
2018-09-18T17:02:36.448Z,62.10
2018-09-18T17:05:04.906Z,64.80
2018-09-18T17:07:33.301Z,67.10
2018-09-18T17:10:01.715Z,63.90
2018-09-18T17:12:30.144Z,65.00
2018-09-18T17:14:58.614Z,63.70
2018-09-18T17:17:26.987Z,61.00
2018-09-18T17:19:55.335Z,61.80
2018-09-18T17:22:23.752Z,61.50
2018-09-18T17:24:52.076Z,59.80
2018-09-18T17:27:20.466Z,59.80
2018-09-18T17:29:48.922Z,60.00
2018-09-18T17:32:17.279Z,61.10
2018-09-18T17:34:45.657Z,60.60
2018-09-18T17:37:14.083Z,60.80
2018-09-18T17:39:42.500Z,60.90
2018-09-18T17:42:10.827Z,61.80
2018-09-18T17:44:39.204Z,63.70
2018-09-18T17:47:07.549Z,64.10
2018-09-18T17:49:36.008Z,64.70
2018-09-18T17:52:04.362Z,64.90
2018-09-18T17:54:32.799Z,64.30
2018-09-18T17:57:04.929Z,64.90
2018-09-18T17:59:34.161Z,67.30
2018-09-18T18:02:02.514Z,68.60
2018-09-18T18:04:30.936Z,69.20
2018-09-18T18:06:59.375Z,69.30
2018-09-18T18:09:27.972Z,69.90
2018-09-18T18:11:56.332Z,70.10
2018-09-18T18:14:24.755Z,70.80
2018-09-18T18:16:53.320Z,71.40
2018-09-18T18:19:21.730Z,71.40
2018-09-18T18:21:50.103Z,71.10
2018-09-18T18:24:18.531Z,71.80
2018-09-18T18:26:46.892Z,72.20
2018-09-18T18:29:15.289Z,72.70
2018-09-18T18:31:43.667Z,73.30
2018-09-18T18:34:12.132Z,74.00
2018-09-18T18:36:40.736Z,74.20
2018-09-18T18:39:09.712Z,74.60
2018-09-18T18:41:38.353Z,74.50
2018-09-18T18:44:06.773Z,74.50
2018-09-18T18:46:35.141Z,74.10
2018-09-18T18:49:03.531Z,73.60
2018-09-18T18:51:31.897Z,73.20
2018-09-18T18:54:00.391Z,72.70
2018-09-18T18:56:28.793Z,72.10
2018-09-18T18:58:57.209Z,72.30
2018-09-18T19:01:25.563Z,72.00
2018-09-18T19:03:53.999Z,72.20
2018-09-18T19:06:22.439Z,72.30
2018-09-18T19:08:50.845Z,73.00
2018-09-18T19:11:19.256Z,73.40
2018-09-18T19:13:47.684Z,74.10
2018-09-18T19:16:16.069Z,74.20
2018-09-18T19:18:44.468Z,74.60
2018-09-18T19:21:12.848Z,74.70
2018-09-18T19:23:41.243Z,74.70
2018-09-18T19:26:09.708Z,74.40
2018-09-18T19:28:38.006Z,74.50
2018-09-18T19:31:06.412Z,74.80
2018-09-18T19:33:34.804Z,75.60
2018-09-18T19:36:03.463Z,76.00
2018-09-18T19:38:31.832Z,77.20
2018-09-18T19:41:00.230Z,78.10
2018-09-18T19:43:28.685Z,78.30
2018-09-18T19:45:57.088Z,77.10
2018-09-18T19:48:25.667Z,76.90
2018-09-18T19:50:54.082Z,77.70
2018-09-18T19:53:22.455Z,78.40
2018-09-18T19:55:50.869Z,79.10
2018-09-18T19:58:19.223Z,80.20
2018-09-18T20:00:47.631Z,80.50
2018-09-18T20:03:16.060Z,82.20
2018-09-18T20:05:44.406Z,83.60
2018-09-18T20:08:12.769Z,84.30
2018-09-18T20:10:41.169Z,84.60
2018-09-18T20:13:09.589Z,85.00
2018-09-18T20:15:38.012Z,85.90
2018-09-18T20:18:06.360Z,87.30
2018-09-18T20:20:34.775Z,87.70
2018-09-18T20:23:03.137Z,87.10
2018-09-18T20:25:31.549Z,87.00
2018-09-18T20:27:59.926Z,86.30
2018-09-18T20:30:28.344Z,86.40
2018-09-18T20:32:56.804Z,87.00
2018-09-18T20:35:25.214Z,87.30
2018-09-18T20:37:53.596Z,87.70
2018-09-18T20:40:22.013Z,88.40
2018-09-18T20:42:50.377Z,89.90
2018-09-18T20:45:18.780Z,90.70
2018-09-18T20:47:47.150Z,91.30
2018-09-18T20:50:15.612Z,91.60
2018-09-18T20:52:44.005Z,91.90
2018-09-18T20:55:12.415Z,92.40
2018-09-18T20:57:40.781Z,92.90
2018-09-18T21:00:09.190Z,93.10
2018-09-18T21:02:37.544Z,93.30
2018-09-18T21:05:05.922Z,93.30
2018-09-18T21:07:34.269Z,93.40
2018-09-18T21:10:02.655Z,93.40
2018-09-18T21:12:31.018Z,93.70
2018-09-18T21:14:59.434Z,93.80
2018-09-18T21:17:27.772Z,93.60
2018-09-18T21:19:56.407Z,93.70
2018-09-18T21:22:24.780Z,93.40
2018-09-18T21:24:59.881Z,93.50
2018-09-18T21:27:28.300Z,93.30
2018-09-18T21:29:56.653Z,93.30
2018-09-18T21:32:25.068Z,93.40
2018-09-18T21:34:53.436Z,93.20
2018-09-18T21:37:21.825Z,93.20
2018-09-18T21:39:50.264Z,93.20
2018-09-18T21:42:18.643Z,93.10
2018-09-18T21:44:47.043Z,92.90
2018-09-18T21:47:15.449Z,92.50
2018-09-18T21:49:43.800Z,92.60
2018-09-18T21:52:12.187Z,92.60
2018-09-18T21:54:40.541Z,92.60
2018-09-18T21:57:08.935Z,92.60
2018-09-18T21:59:37.298Z,92.40
2018-09-18T22:02:05.680Z,92.30
2018-09-18T22:04:34.061Z,92.20
2018-09-18T22:07:02.521Z,92.20
2018-09-18T22:09:30.833Z,92.20
2018-09-18T22:11:59.230Z,92.00
2018-09-18T22:14:28.328Z,92.20
2018-09-18T22:16:56.716Z,92.20
2018-09-18T22:19:25.092Z,92.30
2018-09-18T22:21:53.482Z,92.50
2018-09-18T22:24:21.830Z,92.60
2018-09-18T22:26:50.225Z,92.90
2018-09-18T22:29:18.637Z,93.10
2018-09-18T22:31:46.989Z,93.30
2018-09-18T22:34:15.343Z,93.50
2018-09-18T22:36:43.737Z,93.70
2018-09-18T22:39:12.097Z,93.90
2018-09-18T22:41:40.496Z,94.10
2018-09-18T22:44:08.843Z,94.20
2018-09-18T22:46:37.244Z,94.50
2018-09-18T22:49:05.609Z,94.60
2018-09-18T22:51:34.004Z,94.80
2018-09-18T22:54:02.352Z,94.90
2018-09-18T22:56:30.760Z,95.10
2018-09-18T22:58:59.119Z,95.30
2018-09-18T23:01:27.511Z,95.40
2018-09-18T23:03:55.861Z,95.60
2018-09-18T23:06:24.248Z,95.80
2018-09-18T23:08:52.600Z,96.10
2018-09-18T23:11:20.936Z,96.10
2018-09-18T23:13:49.342Z,96.30
2018-09-18T23:16:17.684Z,96.50
2018-09-18T23:18:46.072Z,96.60
2018-09-18T23:21:14.401Z,96.80
2018-09-18T23:23:42.778Z,97.00
2018-09-18T23:26:11.124Z,97.20
2018-09-18T23:28:39.511Z,97.30
2018-09-18T23:31:07.846Z,97.50
2018-09-18T23:33:36.211Z,97.80
2018-09-18T23:36:04.550Z,98.00
2018-09-18T23:38:32.916Z,98.10
2018-09-18T23:41:01.263Z,98.30
2018-09-18T23:43:29.636Z,98.50
2018-09-18T23:45:58.016Z,98.60
2018-09-18T23:48:26.380Z,98.90
2018-09-18T23:50:54.716Z,99.00
2018-09-18T23:53:23.090Z,99.20
2018-09-18T23:55:51.421Z,99.20
2018-09-18T23:58:19.805Z,99.30
